createdAt,value
2019-01-27T00:00:17.604Z,99.90
2019-01-27T00:02:46.268Z,99.90
2019-01-27T00:05:14.956Z,99.90
2019-01-27T00:07:43.559Z,99.90
2019-01-27T00:10:12.847Z,99.90
2019-01-27T00:12:41.520Z,99.90
2019-01-27T00:15:11.307Z,99.90
2019-01-27T00:17:39.977Z,99.90
2019-01-27T00:20:14.870Z,99.90
2019-01-27T00:22:43.576Z,99.90
2019-01-27T00:25:12.167Z,99.90
2019-01-27T00:27:40.854Z,99.90
2019-01-27T00:30:23.148Z,99.90
2019-01-27T00:32:51.824Z,99.90
2019-01-27T00:35:20.439Z,99.90
2019-01-27T00:37:48.982Z,99.90
2019-01-27T00:40:18.732Z,99.90
2019-01-27T00:42:47.621Z,99.90
2019-01-27T00:45:18.093Z,99.90
2019-01-27T00:47:46.759Z,99.90
2019-01-27T00:50:17.849Z,99.90
2019-01-27T00:52:46.747Z,99.90
2019-01-27T00:55:23.596Z,99.90
2019-01-27T00:57:52.272Z,99.90
2019-01-27T01:00:28.978Z,99.90
2019-01-27T01:02:57.642Z,99.90
2019-01-27T01:05:26.289Z,99.90
2019-01-27T01:07:55.166Z,99.90
2019-01-27T01:10:25.063Z,99.90
2019-01-27T01:12:53.722Z,99.90
2019-01-27T01:15:22.338Z,99.90
2019-01-27T01:17:51.037Z,99.90
2019-01-27T01:20:21.612Z,99.90
2019-01-27T01:22:51.305Z,99.90
2019-01-27T01:25:24.634Z,99.90
2019-01-27T01:27:53.527Z,99.90
2019-01-27T01:30:25.318Z,99.90
2019-01-27T01:32:53.876Z,99.90
2019-01-27T01:35:22.482Z,99.90
2019-01-27T01:37:51.186Z,99.90
2019-01-27T01:40:20.283Z,99.90
2019-01-27T01:42:49.166Z,99.90
2019-01-27T01:45:20.800Z,99.90
2019-01-27T01:47:49.775Z,99.90
2019-01-27T01:50:18.411Z,99.90
2019-01-27T01:52:47.179Z,99.90
2019-01-27T01:55:16.588Z,99.90
2019-01-27T01:57:45.255Z,99.90
2019-01-27T02:00:19.803Z,99.90
2019-01-27T02:02:48.478Z,99.90
2019-01-27T02:05:18.438Z,99.90
2019-01-27T02:07:47.333Z,99.90
2019-01-27T02:10:20.733Z,99.90
2019-01-27T02:12:49.836Z,99.90
2019-01-27T02:15:30.607Z,99.90
2019-01-27T02:17:59.278Z,99.90
2019-01-27T02:20:27.977Z,99.90
2019-01-27T02:22:56.671Z,99.90
2019-01-27T02:25:25.279Z,99.90
2019-01-27T02:27:53.925Z,99.90
2019-01-27T02:30:22.599Z,99.90
2019-01-27T02:32:51.172Z,99.90
2019-01-27T02:35:19.770Z,99.90
2019-01-27T02:37:48.374Z,99.90
2019-01-27T02:40:17.078Z,99.90
2019-01-27T02:42:45.754Z,99.90
2019-01-27T02:45:16.432Z,99.90
2019-01-27T02:47:45.084Z,99.90
2019-01-27T02:50:13.878Z,99.90
2019-01-27T02:52:42.420Z,99.90
2019-01-27T02:55:11.830Z,99.90
2019-01-27T02:57:40.434Z,99.90
2019-01-27T03:00:15.279Z,99.90
2019-01-27T03:02:43.959Z,99.90
2019-01-27T03:05:15.097Z,99.90
2019-01-27T03:07:43.642Z,99.90
2019-01-27T03:10:16.801Z,99.90
2019-01-27T03:12:45.371Z,99.90
2019-01-27T03:15:15.978Z,99.90
2019-01-27T03:17:44.656Z,99.90
2019-01-27T03:20:14.147Z,99.90
2019-01-27T03:22:42.810Z,99.90
2019-01-27T03:25:16.838Z,99.90
2019-01-27T03:27:45.554Z,99.90
2019-01-27T03:30:19.827Z,99.90
2019-01-27T03:32:48.333Z,99.90
2019-01-27T03:35:17.037Z,99.90
2019-01-27T03:37:45.578Z,99.90
2019-01-27T03:40:18.900Z,99.90
2019-01-27T03:42:47.969Z,99.90
2019-01-27T03:45:18.550Z,99.90
2019-01-27T03:47:47.188Z,99.90
2019-01-27T03:50:18.333Z,99.90
2019-01-27T03:52:46.933Z,99.90
2019-01-27T03:55:21.504Z,99.90
2019-01-27T03:57:50.166Z,99.90
2019-01-27T04:00:25.594Z,99.90
2019-01-27T04:02:54.227Z,99.90
2019-01-27T04:05:22.895Z,99.90
2019-01-27T04:07:51.807Z,99.90
2019-01-27T04:10:24.919Z,99.90
2019-01-27T04:12:53.532Z,99.90
2019-01-27T04:15:22.294Z,99.90
2019-01-27T04:17:50.979Z,99.90
2019-01-27T04:20:23.948Z,99.90
2019-01-27T04:22:52.539Z,99.90
2019-01-27T04:25:21.318Z,99.90
2019-01-27T04:27:50.005Z,99.90
2019-01-27T04:30:25.094Z,99.90
2019-01-27T04:32:53.639Z,99.90
2019-01-27T04:35:22.246Z,99.90
2019-01-27T04:37:50.806Z,99.90
2019-01-27T04:40:21.278Z,99.90
2019-01-27T04:42:49.878Z,99.90
2019-01-27T04:45:20.151Z,99.90
2019-01-27T04:47:48.692Z,99.90
2019-01-27T04:50:17.463Z,99.90
2019-01-27T04:52:46.172Z,99.90
2019-01-27T04:55:19.100Z,99.90
2019-01-27T04:57:47.886Z,99.90
2019-01-27T05:00:27.814Z,99.90
2019-01-27T05:02:58.073Z,99.90
2019-01-27T05:05:26.748Z,99.90
2019-01-27T05:07:55.371Z,99.90
2019-01-27T05:10:24.060Z,99.90
2019-01-27T05:12:52.589Z,99.90
2019-01-27T05:15:26.747Z,99.90
2019-01-27T05:17:55.279Z,99.90
2019-01-27T05:20:23.880Z,99.90
2019-01-27T05:22:52.509Z,99.90
2019-01-27T05:25:21.203Z,99.90
2019-01-27T05:27:49.822Z,99.90
2019-01-27T05:30:25.823Z,99.90
2019-01-27T05:32:54.437Z,99.90
2019-01-27T05:35:23.050Z,99.90
2019-01-27T05:37:51.741Z,99.90
2019-01-27T05:40:21.449Z,99.90
2019-01-27T05:42:50.122Z,99.90
2019-01-27T05:45:24.698Z,99.90
2019-01-27T05:47:53.314Z,99.90
2019-01-27T05:50:21.993Z,99.90
2019-01-27T05:52:50.636Z,99.90
2019-01-27T05:55:20.821Z,99.90
2019-01-27T05:57:49.598Z,99.90
2019-01-27T06:00:33.650Z,99.90
2019-01-27T06:03:02.318Z,99.90
2019-01-27T06:05:30.932Z,99.90
2019-01-27T06:07:59.504Z,99.90
2019-01-27T06:10:28.166Z,99.90
2019-01-27T06:12:56.694Z,99.90
2019-01-27T06:15:25.578Z,99.90
2019-01-27T06:17:54.263Z,99.90
2019-01-27T06:20:22.802Z,99.90
2019-01-27T06:22:51.509Z,99.90
2019-01-27T06:25:20.582Z,99.90
2019-01-27T06:27:49.204Z,99.90
2019-01-27T06:30:23.197Z,99.90
2019-01-27T06:32:59.307Z,99.90
2019-01-27T06:35:28.002Z,99.90
2019-01-27T06:37:56.602Z,99.90
2019-01-27T06:40:25.210Z,99.90
2019-01-27T06:42:53.770Z,99.90
2019-01-27T06:45:22.518Z,99.90
2019-01-27T06:47:51.057Z,99.90
2019-01-27T06:50:19.761Z,99.90
2019-01-27T06:52:48.378Z,99.90
2019-01-27T06:55:21.215Z,99.90
2019-01-27T06:57:49.914Z,99.90
2019-01-27T07:00:33.826Z,99.90
2019-01-27T07:03:04.097Z,99.90
2019-01-27T07:05:46.460Z,99.90
2019-01-27T07:08:19.470Z,99.90
2019-01-27T07:10:55.476Z,99.90
2019-01-27T07:13:25.728Z,99.90
2019-01-27T07:16:12.134Z,99.90
2019-01-27T07:18:45.054Z,99.90
2019-01-27T07:21:24.023Z,99.90
2019-01-27T07:23:57.141Z,99.90
2019-01-27T07:26:27.331Z,99.90
2019-01-27T07:29:14.310Z,99.90
2019-01-27T07:31:44.552Z,99.90
2019-01-27T07:34:20.323Z,99.90
2019-01-27T07:37:08.358Z,99.90
2019-01-27T07:39:38.555Z,99.90
2019-01-27T07:42:08.806Z,99.90
2019-01-27T07:44:45.007Z,99.90
2019-01-27T07:47:18.023Z,99.90
2019-01-27T07:49:48.207Z,99.90
2019-01-27T07:52:27.639Z,99.90
2019-01-27T07:55:04.066Z,99.90
2019-01-27T07:57:34.265Z,99.90
2019-01-27T08:00:04.527Z,99.90
2019-01-27T08:02:34.712Z,99.90
2019-01-27T08:05:06.094Z,99.90
2019-01-27T08:07:48.572Z,99.90
2019-01-27T08:10:34.963Z,99.90
2019-01-27T08:13:07.886Z,99.90
2019-01-27T08:15:47.023Z,99.90
2019-01-27T08:18:23.195Z,99.90
2019-01-27T08:20:56.166Z,99.90
2019-01-27T08:23:32.411Z,99.90
2019-01-27T08:26:05.111Z,99.90
2019-01-27T08:28:41.223Z,99.90
2019-01-27T08:31:17.538Z,99.90
2019-01-27T08:33:47.865Z,99.90
2019-01-27T08:36:27.181Z,99.90
2019-01-27T08:39:09.147Z,99.90
2019-01-27T08:41:42.321Z,99.90
2019-01-27T08:44:12.503Z,99.90
2019-01-27T08:46:42.821Z,99.90
2019-01-27T08:49:11.458Z,99.90
2019-01-27T08:51:39.999Z,99.90
2019-01-27T08:54:08.929Z,99.90
2019-01-27T08:56:37.492Z,99.90
2019-01-27T08:59:06.271Z,99.90
2019-01-27T09:01:36.799Z,99.90
2019-01-27T09:04:10.063Z,99.90
2019-01-27T09:06:40.389Z,99.90
2019-01-27T09:09:14.106Z,99.90
2019-01-27T09:11:44.616Z,99.90
2019-01-27T09:14:30.009Z,99.90
2019-01-27T09:17:03.501Z,99.90
2019-01-27T09:19:36.763Z,99.90
2019-01-27T09:22:07.562Z,99.90
2019-01-27T09:24:37.841Z,99.90
2019-01-27T09:27:10.880Z,99.90
2019-01-27T09:29:56.844Z,99.90
2019-01-27T09:32:45.333Z,96.30
2019-01-27T09:35:27.827Z,95.70
2019-01-27T09:38:16.623Z,93.90
2019-01-27T09:40:49.997Z,89.00
2019-01-27T09:43:20.338Z,86.40
2019-01-27T09:46:05.291Z,89.50
2019-01-27T09:48:22.407Z,89.80
2019-01-27T09:50:55.503Z,93.10
2019-01-27T09:53:31.748Z,92.70
2019-01-27T09:56:01.919Z,93.20
2019-01-27T09:58:41.167Z,95.70
2019-01-27T10:01:23.187Z,96.40
2019-01-27T10:03:53.460Z,98.00
2019-01-27T10:06:23.703Z,98.90
2019-01-27T10:08:59.720Z,98.90
2019-01-27T10:11:38.090Z,98.40
2019-01-27T10:14:08.543Z,98.70
2019-01-27T10:16:38.725Z,98.60
2019-01-27T10:19:14.684Z,98.30
2019-01-27T10:21:50.586Z,98.40
2019-01-27T10:24:35.620Z,98.40
2019-01-27T10:27:24.968Z,99.10
2019-01-27T10:30:11.879Z,99.60
2019-01-27T10:32:50.970Z,99.90
2019-01-27T10:35:24.406Z,99.90
2019-01-27T10:37:54.663Z,99.90
2019-01-27T10:40:27.824Z,99.90
2019-01-27T10:43:01.275Z,99.90
2019-01-27T10:45:34.627Z,99.90
2019-01-27T10:48:07.727Z,99.90
2019-01-27T10:50:43.938Z,99.90
2019-01-27T10:53:14.142Z,99.90
2019-01-27T10:55:44.470Z,99.90
2019-01-27T10:58:20.567Z,99.90
2019-01-27T11:01:00.091Z,99.90
2019-01-27T11:03:33.011Z,99.90
2019-01-27T11:06:03.186Z,99.90
2019-01-27T11:08:36.169Z,99.90
2019-01-27T11:11:06.597Z,99.90
2019-01-27T11:13:42.522Z,99.90
2019-01-27T11:16:24.560Z,99.90
2019-01-27T11:18:54.732Z,99.10
2019-01-27T11:21:33.584Z,98.80
2019-01-27T11:24:15.654Z,97.50
2019-01-27T11:26:57.840Z,98.20
2019-01-27T11:29:40.100Z,97.20
2019-01-27T11:32:10.308Z,97.30
2019-01-27T11:34:40.573Z,95.60
2019-01-27T11:37:27.211Z,94.80
2019-01-27T11:40:03.719Z,95.50
2019-01-27T11:42:34.007Z,95.70
2019-01-27T11:45:04.244Z,94.80
2019-01-27T11:47:38.039Z,93.00
2019-01-27T11:50:11.287Z,93.70
2019-01-27T11:52:40.039Z,94.50
2019-01-27T11:55:09.318Z,93.50
2019-01-27T11:57:37.897Z,93.30
2019-01-27T12:00:12.290Z,94.30
2019-01-27T12:02:46.589Z,94.80
2019-01-27T12:05:11.176Z,94.40
2019-01-27T12:07:39.711Z,94.00
2019-01-27T12:10:14.209Z,92.70
2019-01-27T12:12:42.903Z,92.50
2019-01-27T12:15:19.884Z,91.60
2019-01-27T12:17:48.573Z,91.00
2019-01-27T12:20:17.130Z,92.20
2019-01-27T12:22:45.659Z,92.10
2019-01-27T12:25:16.160Z,92.80
2019-01-27T12:27:44.751Z,93.10
2019-01-27T12:30:18.538Z,93.20
2019-01-27T12:32:47.111Z,93.70
2019-01-27T12:35:15.727Z,93.90
2019-01-27T12:37:44.387Z,91.90
2019-01-27T12:40:18.638Z,93.00
2019-01-27T12:42:47.302Z,93.60
2019-01-27T12:45:17.074Z,93.90
2019-01-27T12:47:45.787Z,94.00
2019-01-27T12:50:19.201Z,93.90
2019-01-27T12:52:50.296Z,93.50
2019-01-27T12:55:18.903Z,92.40
2019-01-27T12:57:47.510Z,94.30
2019-01-27T13:00:24.756Z,93.90
2019-01-27T13:02:53.441Z,94.70
2019-01-27T13:05:22.014Z,94.90
2019-01-27T13:07:50.575Z,95.20
2019-01-27T13:10:19.098Z,95.50
2019-01-27T13:12:47.715Z,95.80
2019-01-27T13:15:21.343Z,95.80
2019-01-27T13:17:50.014Z,96.20
2019-01-27T13:20:18.611Z,96.10
2019-01-27T13:22:47.315Z,96.60
2019-01-27T13:25:20.596Z,96.90
2019-01-27T13:27:49.196Z,97.10
2019-01-27T13:30:20.467Z,97.50
2019-01-27T13:32:49.443Z,97.20
2019-01-27T13:35:18.629Z,97.50
2019-01-27T13:37:47.348Z,97.50
2019-01-27T13:40:21.605Z,97.80
2019-01-27T13:42:50.390Z,98.30
2019-01-27T13:45:27.957Z,98.20
2019-01-27T13:47:58.927Z,98.40
2019-01-27T13:50:26.962Z,98.80
2019-01-27T13:52:55.699Z,98.80
2019-01-27T13:55:26.880Z,99.00
2019-01-27T13:57:55.572Z,99.10
2019-01-27T14:00:32.542Z,99.40
2019-01-27T14:03:01.155Z,99.70
2019-01-27T14:05:29.827Z,99.90
2019-01-27T14:07:58.470Z,99.90
2019-01-27T14:10:29.028Z,99.90
2019-01-27T14:12:57.703Z,99.90
2019-01-27T14:15:38.316Z,99.90
2019-01-27T14:18:08.085Z,99.90
2019-01-27T14:20:36.692Z,99.90
2019-01-27T14:23:05.695Z,99.80
2019-01-27T14:25:34.378Z,99.90
2019-01-27T14:28:03.062Z,99.90
2019-01-27T14:30:37.836Z,99.90
2019-01-27T14:33:06.516Z,99.90
2019-01-27T14:35:35.189Z,99.90
2019-01-27T14:38:03.915Z,99.90
2019-01-27T14:40:32.591Z,99.90
2019-01-27T14:43:01.202Z,99.90
2019-01-27T14:45:31.990Z,99.90
2019-01-27T14:48:01.268Z,99.90
2019-01-27T14:50:35.664Z,99.90
2019-01-27T14:53:05.249Z,99.90
2019-01-27T14:55:33.787Z,99.90
2019-01-27T14:58:02.499Z,99.90
2019-01-27T15:00:36.830Z,99.90
2019-01-27T15:03:06.308Z,99.90
2019-01-27T15:05:34.910Z,99.90
2019-01-27T15:08:03.590Z,99.90
2019-01-27T15:10:32.294Z,99.90
2019-01-27T15:13:00.907Z,99.90
2019-01-27T15:15:29.588Z,99.90
2019-01-27T15:17:58.228Z,99.90
2019-01-27T15:20:35.393Z,99.90
2019-01-27T15:23:04.085Z,99.90
2019-01-27T15:25:32.700Z,99.90
2019-01-27T15:28:01.307Z,99.90
2019-01-27T15:30:32.409Z,99.90
2019-01-27T15:33:02.521Z,99.90
2019-01-27T15:35:31.188Z,99.90
2019-01-27T15:37:59.812Z,99.90
2019-01-27T15:40:28.490Z,99.90
2019-01-27T15:42:57.094Z,99.90
2019-01-27T15:45:30.417Z,99.90
2019-01-27T15:47:59.105Z,99.90
2019-01-27T15:50:33.148Z,99.90
2019-01-27T15:53:02.051Z,99.90
2019-01-27T15:55:30.653Z,99.90
2019-01-27T15:57:59.332Z,99.90
2019-01-27T16:00:30.055Z,99.90
2019-01-27T16:02:58.730Z,99.90
2019-01-27T16:05:27.924Z,99.90
2019-01-27T16:07:56.631Z,99.90
2019-01-27T16:10:26.212Z,99.90
2019-01-27T16:12:56.428Z,99.90
2019-01-27T16:15:29.895Z,99.90
2019-01-27T16:17:58.571Z,99.90
2019-01-27T16:20:27.439Z,99.90
2019-01-27T16:23:03.646Z,99.90
2019-01-27T16:25:32.315Z,99.90
2019-01-27T16:28:00.923Z,99.90
2019-01-27T16:30:46.266Z,99.90
2019-01-27T16:33:22.196Z,99.90
2019-01-27T16:35:50.832Z,99.90
2019-01-27T16:38:19.422Z,99.90
2019-01-27T16:40:47.959Z,99.90
2019-01-27T16:43:16.513Z,99.90
2019-01-27T16:45:45.046Z,99.90
2019-01-27T16:48:13.667Z,99.90
2019-01-27T16:50:42.293Z,99.90
2019-01-27T16:53:10.967Z,99.90
2019-01-27T16:55:39.576Z,99.90
2019-01-27T16:58:08.198Z,99.90
2019-01-27T17:00:36.941Z,99.90
2019-01-27T17:03:05.619Z,99.90
2019-01-27T17:05:34.328Z,99.90
2019-01-27T17:08:02.990Z,99.90
2019-01-27T17:10:31.590Z,99.90
2019-01-27T17:13:00.379Z,99.90
2019-01-27T17:15:29.009Z,99.90
2019-01-27T17:17:57.607Z,99.90
2019-01-27T17:20:26.435Z,99.90
2019-01-27T17:22:55.306Z,99.90
2019-01-27T17:25:23.974Z,99.90
2019-01-27T17:27:52.679Z,99.90
2019-01-27T17:30:23.559Z,99.90
2019-01-27T17:32:52.436Z,99.90
2019-01-27T17:35:21.835Z,99.90
2019-01-27T17:37:50.388Z,99.90
2019-01-27T17:40:19.949Z,99.90
2019-01-27T17:42:48.640Z,99.90
2019-01-27T17:45:19.783Z,99.90
2019-01-27T17:47:48.451Z,99.90
2019-01-27T17:50:19.428Z,99.90
2019-01-27T17:52:48.105Z,99.90
2019-01-27T17:55:39.668Z,99.90
2019-01-27T17:58:45.286Z,99.90
2019-01-27T18:01:24.739Z,99.90
2019-01-27T18:03:55.064Z,99.90
2019-01-27T18:06:34.588Z,99.90
2019-01-27T18:09:13.663Z,99.90
2019-01-27T18:11:43.946Z,99.90
2019-01-27T18:14:14.191Z,99.90
2019-01-27T18:16:42.793Z,99.90
2019-01-27T18:19:11.353Z,99.90
2019-01-27T18:21:39.956Z,99.90
2019-01-27T18:24:08.833Z,99.90
2019-01-27T18:26:37.468Z,99.90
2019-01-27T18:29:06.158Z,99.90
2019-01-27T18:31:34.731Z,99.90
2019-01-27T18:34:03.355Z,99.90
2019-01-27T18:36:31.883Z,99.90
2019-01-27T18:39:00.439Z,99.90
2019-01-27T18:41:29.133Z,99.90
2019-01-27T18:43:57.725Z,99.90
2019-01-27T18:46:27.950Z,99.90
2019-01-27T18:48:56.759Z,99.90
2019-01-27T18:51:34.916Z,99.90
2019-01-27T18:54:21.564Z,99.90
2019-01-27T18:56:51.737Z,99.90
2019-01-27T18:59:21.915Z,99.90
2019-01-27T19:01:57.849Z,99.90
2019-01-27T19:04:30.877Z,99.90
2019-01-27T19:07:06.794Z,99.90
2019-01-27T19:09:42.844Z,99.90
2019-01-27T19:12:22.277Z,99.90
2019-01-27T19:15:04.499Z,99.90
2019-01-27T19:17:37.412Z,99.90
2019-01-27T19:20:10.665Z,99.90
2019-01-27T19:22:47.157Z,99.90
2019-01-27T19:25:20.616Z,99.90
2019-01-27T19:27:50.793Z,99.90
2019-01-27T19:30:21.627Z,99.90
2019-01-27T19:33:06.859Z,99.90
2019-01-27T19:35:37.122Z,99.90
2019-01-27T19:38:07.480Z,99.90
2019-01-27T19:40:49.551Z,99.90
2019-01-27T19:43:22.619Z,99.90
2019-01-27T19:45:55.891Z,99.90
2019-01-27T19:48:26.067Z,99.90
2019-01-27T19:50:56.391Z,99.90
2019-01-27T19:53:32.908Z,99.90
2019-01-27T19:56:11.828Z,99.90
2019-01-27T19:58:42.096Z,99.90
2019-01-27T20:01:24.519Z,99.90
2019-01-27T20:03:54.786Z,99.90
2019-01-27T20:06:27.963Z,99.90
2019-01-27T20:09:07.271Z,99.90
2019-01-27T20:11:40.595Z,99.90
2019-01-27T20:14:25.832Z,99.90
2019-01-27T20:16:58.790Z,99.90
2019-01-27T20:19:29.041Z,99.90
2019-01-27T20:22:08.376Z,99.90
2019-01-27T20:24:38.551Z,99.90
2019-01-27T20:27:08.804Z,99.90
2019-01-27T20:29:47.964Z,99.90
2019-01-27T20:32:26.977Z,99.90
2019-01-27T20:35:02.880Z,99.90
2019-01-27T20:37:33.058Z,99.90
2019-01-27T20:40:19.781Z,99.90
2019-01-27T20:42:55.932Z,99.90
2019-01-27T20:45:31.879Z,99.90
2019-01-27T20:48:10.766Z,99.90
2019-01-27T20:50:41.037Z,99.90
2019-01-27T20:53:11.220Z,99.90
2019-01-27T20:55:47.087Z,99.90
2019-01-27T20:58:17.265Z,99.90
2019-01-27T21:00:53.486Z,99.90
2019-01-27T21:03:23.736Z,99.90
2019-01-27T21:05:56.693Z,99.90
2019-01-27T21:08:26.974Z,99.90
2019-01-27T21:11:12.240Z,99.90
2019-01-27T21:13:42.582Z,99.90
2019-01-27T21:16:15.727Z,99.90
2019-01-27T21:18:45.898Z,99.90
2019-01-27T21:21:15.576Z,99.90
2019-01-27T21:23:44.299Z,99.90
2019-01-27T21:26:12.890Z,99.90
2019-01-27T21:28:41.527Z,99.90
2019-01-27T21:31:10.119Z,99.90
2019-01-27T21:33:38.718Z,99.90
2019-01-27T21:36:07.334Z,99.90
2019-01-27T21:38:35.870Z,99.90
2019-01-27T21:41:04.753Z,99.90
2019-01-27T21:43:33.302Z,99.90
2019-01-27T21:46:01.908Z,99.90
2019-01-27T21:48:30.570Z,99.90
2019-01-27T21:50:59.208Z,99.90
2019-01-27T21:53:27.805Z,99.90
2019-01-27T21:55:56.416Z,99.90
2019-01-27T21:58:25.044Z,99.90
2019-01-27T22:00:53.647Z,99.90
2019-01-27T22:03:22.189Z,99.90
2019-01-27T22:05:50.739Z,99.90
2019-01-27T22:08:19.340Z,99.90
2019-01-27T22:10:47.934Z,99.90
2019-01-27T22:13:16.498Z,99.90
2019-01-27T22:15:45.086Z,99.90
2019-01-27T22:18:13.624Z,99.90
2019-01-27T22:20:42.180Z,99.90
2019-01-27T22:23:10.792Z,99.90
2019-01-27T22:25:39.391Z,99.90
2019-01-27T22:28:07.955Z,99.90
2019-01-27T22:30:36.564Z,99.90
2019-01-27T22:33:05.231Z,99.90
2019-01-27T22:35:33.854Z,99.90
2019-01-27T22:38:02.518Z,99.90
2019-01-27T22:40:31.136Z,99.90
2019-01-27T22:42:59.700Z,99.90
2019-01-27T22:45:28.304Z,99.90
2019-01-27T22:47:56.841Z,99.90
2019-01-27T22:50:25.483Z,99.90
2019-01-27T22:52:54.009Z,99.90
2019-01-27T22:55:22.618Z,99.90
2019-01-27T22:57:51.248Z,99.90
2019-01-27T23:00:24.507Z,99.90
2019-01-27T23:02:53.378Z,99.90
2019-01-27T23:05:21.999Z,99.90
2019-01-27T23:07:50.532Z,99.90
2019-01-27T23:10:19.198Z,99.90
2019-01-27T23:12:47.755Z,99.90
2019-01-27T23:15:16.440Z,99.90
2019-01-27T23:17:45.052Z,99.90
2019-01-27T23:20:13.749Z,99.90
2019-01-27T23:22:42.350Z,99.90
2019-01-27T23:25:11.023Z,99.90
2019-01-27T23:27:39.576Z,99.90
2019-01-27T23:30:09.946Z,99.90
2019-01-27T23:32:38.483Z,99.90
2019-01-27T23:35:07.774Z,99.90
2019-01-27T23:37:36.464Z,99.90
2019-01-27T23:40:07.239Z,99.90
2019-01-27T23:42:36.426Z,99.90
2019-01-27T23:45:08.037Z,99.90
2019-01-27T23:47:36.636Z,99.90
2019-01-27T23:50:07.435Z,99.90
2019-01-27T23:52:36.040Z,99.90
2019-01-27T23:55:06.704Z,99.90
2019-01-27T23:57:35.340Z,99.90
